Time;durP1;ratioP1;P1;durP2;ratioP2;P2;SDS_P1;SDS_P2;PMS_P1;PMS_P2;Temp;Humidity;BMP_temperature;BMP_pressure;BME280_temperature;BME280_humidity;BME280_pressure;Samples;Min_cycle;Max_cycle;Signal;HPM_P1;HPM_P2
2022/12/08 00:02:51;;;;;;;6.83;4.47;;;2.00;99.90;;;;;;8438396;27;20186;-79
2022/12/08 00:11:12;;;;;;;5.37;3.97;;;2.00;99.90;;;;;;8458493;27;20235;-80
2022/12/08 00:15:13;;;;;;;7.87;3.77;;;2.00;99.90;;;;;;8453173;27;20265;-75
2022/12/08 00:19:14;;;;;;;8.60;3.90;;;2.00;99.90;;;;;;8440815;27;20179;-75
2022/12/08 00:23:15;;;;;;;4.97;3.47;;;2.00;99.90;;;;;;8456511;27;20186;-78
2022/12/08 00:27:16;;;;;;;5.13;3.83;;;2.00;99.90;;;;;;8440604;27;20254;-75
2022/12/08 00:31:17;;;;;;;4.67;4.23;;;2.00;99.90;;;;;;8451751;27;20218;-75
2022/12/08 00:35:18;;;;;;;5.57;3.80;;;2.00;99.90;;;;;;8446282;27;20286;-74
2022/12/08 00:39:19;;;;;;;4.60;3.63;;;2.10;99.90;;;;;;8440937;27;20185;-79
2022/12/08 00:43:20;;;;;;;8.13;3.90;;;2.10;99.90;;;;;;8439441;27;20232;-75
2022/12/08 00:47:21;;;;;;;4.67;3.93;;;2.10;99.90;;;;;;8452389;27;20263;-76
2022/12/08 00:51:21;;;;;;;4.63;3.57;;;2.20;99.90;;;;;;8440478;27;20210;-75
2022/12/08 00:55:22;;;;;;;6.07;4.50;;;2.10;99.90;;;;;;8456665;27;20187;-76
2022/12/08 00:59:23;;;;;;;5.30;3.47;;;2.10;99.90;;;;;;8443148;27;20199;-76
2022/12/08 01:03:24;;;;;;;5.23;3.73;;;2.00;99.90;;;;;;8441363;27;20183;-75
2022/12/08 01:07:25;;;;;;;7.30;4.40;;;1.90;99.90;;;;;;8451907;27;20270;-74
2022/12/08 01:11:26;;;;;;;6.70;4.20;;;1.90;99.90;;;;;;8442771;27;20205;-76
2022/12/08 01:15:27;;;;;;;7.20;4.90;;;1.90;99.90;;;;;;8438360;27;20176;-78
2022/12/08 01:19:27;;;;;;;7.93;4.97;;;1.90;99.90;;;;;;8441369;27;20194;-78
2022/12/08 01:23:29;;;;;;;6.80;5.47;;;1.90;99.90;;;;;;8429328;28;20183;-77
2022/12/08 01:27:29;;;;;;;8.17;5.80;;;1.80;99.90;;;;;;8419466;28;20308;-76
2022/12/08 01:31:30;;;;;;;7.63;5.10;;;1.60;99.90;;;;;;8428099;28;20389;-74
2022/12/08 01:35:33;;;;;;;9.00;5.63;;;1.50;99.90;;;;;;8433062;28;20205;-75
2022/12/08 01:39:34;;;;;;;8.27;5.20;;;1.50;99.90;;;;;;8454620;27;20227;-76
2022/12/08 01:43:55;;;;;;;6.70;5.07;;;1.40;99.90;;;;;;8438736;27;20180;-77
2022/12/08 01:48:01;;;;;;;6.63;5.47;;;1.50;99.90;;;;;;8461120;27;20178;-78
2022/12/08 01:52:13;;;;;;;6.43;4.90;;;1.50;99.90;;;;;;8440170;27;20207;-78
2022/12/08 01:56:32;;;;;;;8.47;5.20;;;1.40;99.90;;;;;;8444752;27;20300;-75
2022/12/08 02:00:33;;;;;;;9.83;5.20;;;1.30;99.90;;;;;;8452708;27;20196;-77
2022/12/08 02:04:33;;;;;;;7.20;5.60;;;1.30;99.90;;;;;;8436320;27;20220;-76
2022/12/08 02:08:37;;;;;;;7.57;5.47;;;1.40;99.90;;;;;;8447267;27;20183;-76
2022/12/08 02:12:38;;;;;;;8.73;5.97;;;1.40;99.90;;;;;;8456190;27;20213;-78
2022/12/08 02:17:16;;;;;;;8.70;5.37;;;1.50;99.90;;;;;;8440598;27;20247;-75
2022/12/08 02:21:32;;;;;;;8.43;5.00;;;1.60;99.90;;;;;;8446168;27;20377;-74
2022/12/08 02:26:04;;;;;;;6.87;5.43;;;1.60;99.90;;;;;;8464668;27;20184;-74
2022/12/08 02:30:18;;;;;;;6.43;5.30;;;1.60;99.90;;;;;;8431512;27;20238;-76
2022/12/08 02:34:37;;;;;;;7.87;5.50;;;1.60;99.90;;;;;;8438568;27;20310;-76
2022/12/08 02:38:47;;;;;;;7.20;5.37;;;1.50;99.90;;;;;;8444925;27;20262;-77
2022/12/08 02:43:09;;;;;;;8.13;5.03;;;1.30;99.90;;;;;;8444910;27;20181;-75
2022/12/08 02:47:17;;;;;;;7.70;5.50;;;1.20;99.90;;;;;;8454959;27;20182;-77
2022/12/08 02:51:18;;;;;;;7.70;4.60;;;1.10;99.90;;;;;;8440923;27;20212;-77
2022/12/08 02:55:25;;;;;;;6.70;4.93;;;1.10;99.90;;;;;;8458382;27;20184;-76
2022/12/08 02:59:43;;;;;;;4.93;3.77;;;1.10;99.90;;;;;;8457205;27;20223;-77
2022/12/08 03:04:04;;;;;;;5.43;4.17;;;1.00;99.90;;;;;;8449292;27;20184;-75
2022/12/08 03:08:33;;;;;;;7.13;4.93;;;0.90;99.90;;;;;;8442044;27;20185;-76
2022/12/08 03:12:47;;;;;;;7.73;5.17;;;0.80;99.90;;;;;;8428693;27;20279;-79
2022/12/08 03:16:52;;;;;;;7.07;4.87;;;0.80;99.90;;;;;;8440388;27;20180;-75
2022/12/08 03:20:53;;;;;;;6.73;4.90;;;0.70;99.90;;;;;;8452930;27;20498;-77
2022/12/08 03:24:55;;;;;;;5.87;4.43;;;0.70;99.90;;;;;;8436819;27;20176;-76
2022/12/08 03:28:57;;;;;;;7.37;4.77;;;0.60;99.90;;;;;;8442306;27;20523;-74
2022/12/08 03:33:06;;;;;;;7.17;5.23;;;0.60;99.90;;;;;;8443283;27;20212;-77
2022/12/08 03:37:06;;;;;;;8.57;5.50;;;0.60;99.90;;;;;;8429113;27;20285;-77
2022/12/08 03:41:20;;;;;;;10.27;5.60;;;0.50;99.90;;;;;;8431194;27;20180;-77
2022/12/08 03:45:20;;;;;;;10.93;6.97;;;0.50;99.90;;;;;;8448086;27;20180;-77
2022/12/08 03:49:23;;;;;;;7.80;5.73;;;0.60;99.90;;;;;;8429485;27;20278;-78
2022/12/08 03:53:24;;;;;;;6.77;5.47;;;0.60;99.90;;;;;;8446045;27;20184;-76
2022/12/08 03:57:25;;;;;;;7.53;5.67;;;0.60;99.90;;;;;;8437096;27;20200;-74
2022/12/08 04:01:26;;;;;;;6.73;4.80;;;0.60;99.90;;;;;;8435548;27;20183;-78
2022/12/08 04:05:27;;;;;;;12.07;5.77;;;0.70;99.90;;;;;;8439681;27;20175;-78
2022/12/08 04:09:28;;;;;;;6.93;5.20;;;0.70;99.90;;;;;;8439286;27;20226;-77
2022/12/08 04:13:29;;;;;;;6.17;4.97;;;0.70;99.90;;;;;;8440320;27;20187;-79
2022/12/08 04:17:29;;;;;;;10.37;5.30;;;0.70;99.90;;;;;;8458339;27;20309;-75
2022/12/08 04:21:30;;;;;;;9.43;5.30;;;0.70;99.90;;;;;;8437012;27;20503;-75
2022/12/08 04:25:31;;;;;;;7.90;5.10;;;0.70;99.90;;;;;;8456799;27;20515;-74
2022/12/08 04:29:32;;;;;;;5.23;4.50;;;0.80;99.90;;;;;;8432738;27;20329;-77
2022/12/08 04:33:34;;;;;;;8.87;5.00;;;0.80;99.90;;;;;;8440221;27;20214;-75
2022/12/08 04:37:35;;;;;;;6.13;4.73;;;0.80;99.90;;;;;;8443495;27;20180;-75
2022/12/08 04:41:35;;;;;;;5.13;4.17;;;0.90;99.90;;;;;;8437420;27;20272;-79
2022/12/08 04:45:39;;;;;;;6.90;4.87;;;0.90;99.90;;;;;;8437921;27;20176;-78
2022/12/08 04:49:40;;;;;;;4.57;3.97;;;1.00;99.90;;;;;;8437016;27;20525;-76
2022/12/08 04:53:41;;;;;;;4.70;3.70;;;1.00;99.90;;;;;;8436572;27;20232;-79
2022/12/08 04:57:42;;;;;;;7.27;4.37;;;1.00;99.90;;;;;;8436913;27;20283;-74
2022/12/08 05:01:42;;;;;;;5.77;3.97;;;0.90;99.90;;;;;;8436009;27;20203;-75
2022/12/08 05:05:43;;;;;;;7.03;4.60;;;0.90;99.90;;;;;;8441891;27;20233;-76
2022/12/08 05:09:44;;;;;;;5.97;4.10;;;0.80;99.90;;;;;;8455793;27;20480;-77
2022/12/08 05:13:46;;;;;;;7.77;4.87;;;0.80;99.90;;;;;;8458571;27;20279;-78
2022/12/08 05:17:46;;;;;;;5.93;4.60;;;0.80;99.90;;;;;;8431372;27;20183;-79
2022/12/08 05:21:47;;;;;;;8.37;5.37;;;0.70;99.90;;;;;;8437160;27;20184;-75
2022/12/08 05:25:48;;;;;;;8.87;5.17;;;0.80;99.90;;;;;;8442559;28;20179;-75
2022/12/08 05:29:49;;;;;;;5.80;4.43;;;0.80;99.90;;;;;;8441336;28;20207;-74
2022/12/08 05:33:51;;;;;;;7.87;5.60;;;0.70;99.90;;;;;;8439335;28;20202;-75
2022/12/08 05:37:52;;;;;;;7.57;5.27;;;0.70;99.90;;;;;;8439916;28;20187;-74
2022/12/08 05:41:53;;;;;;;7.57;4.57;;;0.70;99.90;;;;;;8427093;28;20219;-77
2022/12/08 05:45:54;;;;;;;7.53;4.60;;;0.70;99.90;;;;;;8435707;28;20184;-75
2022/12/08 05:49:55;;;;;;;7.83;4.87;;;0.80;99.90;;;;;;8442517;28;20208;-74
2022/12/08 05:53:56;;;;;;;5.67;5.07;;;0.80;99.90;;;;;;8438042;28;20180;-78
2022/12/08 05:57:57;;;;;;;6.03;4.47;;;0.80;99.90;;;;;;8434576;28;20203;-76
2022/12/08 06:01:58;;;;;;;6.97;4.97;;;0.90;99.90;;;;;;8432272;28;20226;-78
2022/12/08 06:05:59;;;;;;;5.87;4.60;;;0.90;99.90;;;;;;8440291;28;20251;-74
2022/12/08 06:09:59;;;;;;;6.40;4.30;;;1.00;99.90;;;;;;8434209;28;20227;-74
2022/12/08 06:14:00;;;;;;;6.63;4.97;;;1.00;99.90;;;;;;8436255;28;20192;-74
2022/12/08 06:18:01;;;;;;;7.73;5.30;;;1.00;99.90;;;;;;8454215;28;20188;-76
2022/12/08 06:22:02;;;;;;;7.73;5.50;;;1.00;99.90;;;;;;8451971;28;20195;-79
2022/12/08 06:26:09;;;;;;;8.80;5.87;;;1.10;99.90;;;;;;8439709;27;20192;-78
2022/12/08 06:30:10;;;;;;;8.60;6.23;;;1.10;99.90;;;;;;8447345;27;20203;-78
2022/12/08 06:34:11;;;;;;;9.17;6.27;;;1.10;99.90;;;;;;8444303;27;20274;-75
2022/12/08 06:38:12;;;;;;;8.57;5.93;;;1.10;99.90;;;;;;8441299;27;20192;-78
2022/12/08 06:46:32;;;;;;;7.53;4.93;;;1.10;99.90;;;;;;8460582;27;20272;-75
2022/12/08 06:50:33;;;;;;;6.37;4.80;;;1.20;99.90;;;;;;8457134;27;20207;-75
2022/12/08 06:54:34;;;;;;;8.37;5.30;;;1.20;99.90;;;;;;8440740;27;20184;-77
2022/12/08 06:58:35;;;;;;;5.67;4.57;;;1.30;99.90;;;;;;8463696;27;20203;-75
2022/12/08 07:02:37;;;;;;;8.67;5.30;;;1.40;99.90;;;;;;8433277;27;20183;-75
2022/12/08 07:06:38;;;;;;;7.53;5.50;;;1.50;99.90;;;;;;8442470;27;20194;-77
2022/12/08 07:10:39;;;;;;;8.67;5.10;;;1.50;99.90;;;;;;8463408;27;20219;-78
2022/12/08 07:14:40;;;;;;;7.50;4.83;;;1.60;99.90;;;;;;8436585;27;20270;-74
2022/12/08 07:18:41;;;;;;;9.57;6.40;;;1.70;99.90;;;;;;8441703;27;20270;-77
2022/12/08 07:22:48;;;;;;;7.03;5.53;;;1.80;99.90;;;;;;8445380;27;20210;-74
2022/12/08 07:26:49;;;;;;;7.10;5.23;;;2.00;99.90;;;;;;8441123;27;20232;-74
2022/12/08 07:30:50;;;;;;;8.10;5.17;;;2.10;99.90;;;;;;8457863;27;20244;-77
2022/12/08 07:34:51;;;;;;;6.87;5.27;;;2.10;99.90;;;;;;8433903;27;20469;-75
2022/12/08 07:38:52;;;;;;;6.63;5.33;;;2.20;99.90;;;;;;8439604;27;20177;-77
2022/12/08 07:42:53;;;;;;;6.20;4.90;;;2.30;99.90;;;;;;8459020;27;20180;-77
2022/12/08 07:46:54;;;;;;;8.63;6.47;;;2.40;99.90;;;;;;8456677;27;20189;-78
2022/12/08 07:51:03;;;;;;;7.27;6.03;;;2.50;99.90;;;;;;8440577;27;20214;-76
2022/12/08 07:55:04;;;;;;;7.33;5.47;;;2.60;99.90;;;;;;8458912;27;20188;-78
2022/12/08 07:59:05;;;;;;;8.53;6.13;;;2.60;99.90;;;;;;8438424;27;20539;-76
2022/12/08 08:03:07;;;;;;;8.90;5.83;;;2.70;99.90;;;;;;8432756;27;20173;-75
2022/12/08 08:07:08;;;;;;;8.07;6.10;;;2.80;99.90;;;;;;8441819;27;20179;-77
2022/12/08 08:11:09;;;;;;;8.43;6.20;;;2.90;99.90;;;;;;8436129;27;20207;-77
2022/12/08 08:15:10;;;;;;;8.20;6.53;;;2.90;99.90;;;;;;8429226;27;20172;-76
2022/12/08 08:19:11;;;;;;;8.17;5.90;;;2.90;99.90;;;;;;8439175;27;20176;-75
2022/12/08 08:23:12;;;;;;;9.30;6.37;;;3.00;99.90;;;;;;8439193;27;20187;-76
2022/12/08 08:27:13;;;;;;;9.17;6.90;;;3.00;99.90;;;;;;8440950;27;20187;-76
2022/12/08 08:31:14;;;;;;;10.13;6.47;;;3.10;99.90;;;;;;8450787;27;20203;-77
2022/12/08 08:35:15;;;;;;;9.40;6.50;;;3.10;99.90;;;;;;8441103;27;20199;-78
2022/12/08 08:39:16;;;;;;;9.60;7.10;;;3.20;99.90;;;;;;8437977;27;20183;-74
2022/12/08 08:43:29;;;;;;;8.57;7.10;;;3.20;99.90;;;;;;8449224;27;20547;-79
2022/12/08 08:47:30;;;;;;;9.17;7.37;;;3.40;99.90;;;;;;8435435;27;20250;-77
2022/12/08 08:51:31;;;;;;;11.33;7.47;;;3.60;99.90;;;;;;8449998;27;20219;-75
2022/12/08 08:55:32;;;;;;;8.07;7.27;;;3.80;99.90;;;;;;8426496;27;20204;-78
2022/12/08 08:59:33;;;;;;;7.60;6.80;;;3.90;99.90;;;;;;8436832;27;20226;-76
2022/12/08 09:03:34;;;;;;;7.17;6.13;;;4.00;99.90;;;;;;8448491;27;20180;-78
2022/12/08 09:07:35;;;;;;;10.13;6.67;;;4.20;99.90;;;;;;8442413;27;20191;-76
2022/12/08 09:11:36;;;;;;;6.67;5.63;;;4.20;99.90;;;;;;8427621;27;20214;-74
2022/12/08 09:15:37;;;;;;;6.63;5.57;;;4.20;99.90;;;;;;8435625;27;20206;-76
2022/12/08 09:19:37;;;;;;;6.63;5.80;;;4.30;99.90;;;;;;8435892;27;20180;-77
2022/12/08 09:23:39;;;;;;;9.80;6.60;;;4.30;99.90;;;;;;8438586;27;20566;-76
2022/12/08 09:27:39;;;;;;;7.17;5.83;;;4.40;99.90;;;;;;8460644;27;20239;-75
2022/12/08 09:31:41;;;;;;;7.53;6.13;;;4.40;99.90;;;;;;8433169;28;20209;-74
2022/12/08 09:35:42;;;;;;;8.00;6.20;;;4.40;99.90;;;;;;8453959;28;20306;-79
2022/12/08 09:39:42;;;;;;;10.17;6.63;;;4.40;99.90;;;;;;8443561;28;20180;-74
2022/12/08 09:44:07;;;;;;;7.80;6.10;;;4.40;99.90;;;;;;8433324;28;20539;-77
2022/12/08 09:48:24;;;;;;;7.70;5.90;;;4.50;99.90;;;;;;8435354;28;20194;-75
2022/12/08 09:52:30;;;;;;;7.10;5.10;;;4.50;99.90;;;;;;8435719;28;20203;-75
2022/12/08 09:56:35;;;;;;;5.97;5.37;;;4.50;99.90;;;;;;8440014;28;20590;-79
2022/12/08 10:00:36;;;;;;;6.33;5.23;;;4.40;99.90;;;;;;8443653;27;20191;-75
2022/12/08 10:04:37;;;;;;;6.73;5.47;;;4.20;99.90;;;;;;8462776;27;20187;-76
2022/12/08 10:08:57;;;;;;;6.73;5.50;;;4.00;99.90;;;;;;8441251;27;20184;-73
2022/12/08 10:13:04;;;;;;;6.73;5.00;;;3.80;99.90;;;;;;8441587;27;20195;-75
2022/12/08 10:17:13;;;;;;;7.00;5.97;;;3.70;99.90;;;;;;8439356;27;20179;-76
2022/12/08 10:21:21;;;;;;;6.47;5.53;;;3.60;99.90;;;;;;8441428;27;20192;-75
2022/12/08 10:25:32;;;;;;;7.30;6.07;;;3.60;99.90;;;;;;8436460;27;20267;-76
2022/12/08 10:29:32;;;;;;;7.57;6.10;;;3.60;99.90;;;;;;8443295;27;20181;-74
2022/12/08 10:33:33;;;;;;;7.57;6.30;;;3.80;99.90;;;;;;8445096;27;20206;-76
2022/12/08 10:37:35;;;;;;;8.73;5.97;;;4.10;99.90;;;;;;8443680;27;20277;-78
2022/12/08 10:41:36;;;;;;;7.60;5.63;;;4.20;99.90;;;;;;8446390;27;20183;-78
2022/12/08 10:45:40;;;;;;;7.37;4.97;;;4.30;99.90;;;;;;8437000;27;20191;-76
2022/12/08 10:49:41;;;;;;;8.40;5.10;;;4.20;99.90;;;;;;8432849;27;20291;-78
2022/12/08 10:53:45;;;;;;;9.80;5.27;;;4.20;99.90;;;;;;8442730;27;20255;-76
2022/12/08 10:57:49;;;;;;;5.30;4.80;;;4.20;99.90;;;;;;8459207;27;20203;-76
2022/12/08 11:01:53;;;;;;;8.97;5.37;;;4.30;99.90;;;;;;8436286;27;20180;-76
2022/12/08 11:06:18;;;;;;;5.97;4.60;;;4.50;99.90;;;;;;8433159;27;20187;-76
2022/12/08 11:10:29;;;;;;;5.30;4.67;;;4.60;99.90;;;;;;8450216;27;20202;-74
2022/12/08 11:14:32;;;;;;;5.53;4.50;;;4.80;99.90;;;;;;8446982;27;20231;-74
2022/12/08 11:18:41;;;;;;;6.70;4.70;;;4.90;1.00;;;;;;8459945;27;20176;-79
2022/12/08 11:22:44;;;;;;;6.03;5.13;;;4.90;99.90;;;;;;8439140;27;20189;-74
2022/12/08 11:26:58;;;;;;;7.23;4.93;;;5.10;85.10;;;;;;8443587;27;20271;-76
2022/12/08 11:31:27;;;;;;;5.50;4.20;;;5.20;1.00;;;;;;8428815;27;20199;-77
2022/12/08 11:35:36;;;;;;;5.60;4.73;;;5.30;1.00;;;;;;8429073;27;20271;-74
2022/12/08 11:39:43;;;;;;;6.63;5.27;;;5.40;99.90;;;;;;8454399;27;20179;-76
2022/12/08 11:44:34;;;;;;;5.67;4.63;;;5.40;99.90;;;;;;8439081;27;20183;-75
2022/12/08 11:48:45;;;;;;;5.73;4.53;;;5.60;99.90;;;;;;8246534;28;20183;-75
2022/12/08 11:52:48;;;;;;;7.20;4.90;;;5.80;99.90;;;;;;8357865;27;20243;-77
2022/12/08 11:56:54;;;;;;;7.07;5.17;;;5.90;1.00;;;;;;8452227;27;20203;-75
2022/12/08 12:00:57;;;;;;;7.27;5.40;;;5.70;1.00;;;;;;8440876;27;20195;-78
2022/12/08 12:05:20;;;;;;;4.97;4.30;;;5.60;1.00;;;;;;8441958;27;20180;-77
2022/12/08 12:09:32;;;;;;;6.50;4.70;;;5.70;1.00;;;;;;8461818;27;20218;-77
2022/12/08 12:14:03;;;;;;;6.10;4.83;;;5.70;1.00;;;;;;8428950;27;20449;-74
2022/12/08 12:18:06;;;;;;;7.00;4.47;;;5.70;1.00;;;;;;8434146;27;20185;-75
2022/12/08 12:22:16;;;;;;;5.67;4.67;;;5.80;1.00;;;;;;8440985;27;20184;-74
2022/12/08 12:26:29;;;;;;;8.37;5.00;;;5.80;1.00;;;;;;8446094;27;20606;-76
2022/12/08 12:30:50;;;;;;;7.30;4.90;;;5.90;1.00;;;;;;8455645;27;20251;-79
2022/12/08 12:34:51;;;;;;;5.47;3.97;;;6.00;99.90;;;;;;8429720;27;20281;-77
2022/12/08 12:39:00;;;;;;;5.17;4.53;;;5.90;99.90;;;;;;8443330;27;20733;-76
2022/12/08 12:43:01;;;;;;;5.00;4.13;;;5.80;99.90;;;;;;8453517;27;20239;-75
2022/12/08 12:47:07;;;;;;;5.60;3.90;;;5.50;99.90;;;;;;8435588;27;20352;-76
2022/12/08 12:51:46;;;;;;;6.53;4.50;;;5.30;99.90;;;;;;8448926;27;20199;-76
2022/12/08 12:55:54;;;;;;;5.00;4.00;;;5.10;1.00;;;;;;8431607;27;20217;-75
2022/12/08 12:59:58;;;;;;;5.33;3.63;;;5.00;1.00;;;;;;8450467;27;20203;-74
2022/12/08 13:04:06;;;;;;;7.27;4.30;;;4.90;1.00;;;;;;8443425;27;20175;-75
2022/12/08 13:08:21;;;;;;;4.93;4.40;;;4.90;1.00;;;;;;8443443;27;20280;-77
2022/12/08 13:12:23;;;;;;;5.13;4.27;;;4.90;1.00;;;;;;8446057;27;20221;-75
2022/12/08 13:16:29;;;;;;;5.40;4.47;;;4.80;1.00;;;;;;8423281;27;20191;-74
2022/12/08 13:20:42;;;;;;;6.93;4.63;;;4.80;1.00;;;;;;8432584;27;20184;-74
2022/12/08 13:24:43;;;;;;;6.57;4.97;;;4.70;1.00;;;;;;8449537;27;20235;-76
2022/12/08 13:29:00;;;;;;;8.27;4.50;;;4.60;1.00;;;;;;8431487;28;20183;-76
2022/12/08 13:33:01;;;;;;;6.93;4.60;;;4.50;11.50;;;;;;8423923;27;20221;-77
2022/12/08 13:37:12;;;;;;;7.87;4.93;;;4.30;80.00;;;;;;8438568;28;20179;-76
2022/12/08 13:41:19;;;;;;;6.77;5.60;;;4.30;99.90;;;;;;8439037;28;20296;-77
2022/12/08 13:45:24;;;;;;;7.33;5.37;;;4.20;99.90;;;;;;8438745;28;20199;-75
2022/12/08 13:49:32;;;;;;;7.00;5.93;;;4.10;99.90;;;;;;8418977;28;20196;-74
2022/12/08 13:53:38;;;;;;;7.07;6.03;;;4.00;99.90;;;;;;8450669;28;20184;-75
2022/12/08 13:57:42;;;;;;;6.00;4.97;;;3.90;99.90;;;;;;8451150;28;20227;-78
2022/12/08 14:01:47;;;;;;;6.10;5.27;;;3.80;99.90;;;;;;8441035;28;20192;-76
2022/12/08 14:05:48;;;;;;;6.47;5.23;;;3.80;99.90;;;;;;8437026;28;20187;-78
2022/12/08 14:09:51;;;;;;;6.43;5.10;;;3.60;99.90;;;;;;8448730;28;20215;-78
2022/12/08 14:13:52;;;;;;;7.57;5.33;;;3.50;99.90;;;;;;8457180;28;20190;-77
2022/12/08 14:17:56;;;;;;;7.70;5.60;;;3.40;99.90;;;;;;8435693;28;20172;-78
2022/12/08 14:22:10;;;;;;;7.87;5.40;;;3.20;99.90;;;;;;8432826;28;20176;-78
2022/12/08 14:26:12;;;;;;;6.73;5.63;;;3.10;99.90;;;;;;8438614;28;20275;-74
2022/12/08 14:30:18;;;;;;;7.63;5.70;;;2.90;1.00;;;;;;8441548;28;20207;-76
2022/12/08 14:34:19;;;;;;;7.20;5.30;;;2.70;1.00;;;;;;8427440;28;20241;-76
2022/12/08 14:38:22;;;;;;;7.37;5.60;;;2.50;1.00;;;;;;8439164;28;20183;-76
2022/12/08 14:42:26;;;;;;;6.53;4.57;;;2.40;26.80;;;;;;8450458;28;20184;-79
2022/12/08 14:46:27;;;;;;;7.63;5.13;;;2.30;99.90;;;;;;8441216;27;20203;-76
2022/12/08 14:50:52;;;;;;;6.83;5.17;;;2.20;99.90;;;;;;8437370;27;20211;-75
2022/12/08 14:54:55;;;;;;;7.57;5.33;;;2.10;99.90;;;;;;8436210;27;20173;-77
2022/12/08 14:59:05;;;;;;;7.43;5.33;;;1.90;99.90;;;;;;8443613;27;20199;-77
2022/12/08 15:03:06;;;;;;;7.50;5.30;;;1.70;99.90;;;;;;8423861;27;20193;-78
2022/12/08 15:07:18;;;;;;;7.00;4.97;;;1.50;1.00;;;;;;8461441;27;20177;-77
2022/12/08 15:11:22;;;;;;;5.93;4.90;;;1.30;1.00;;;;;;8461416;27;20466;-79
2022/12/08 15:15:23;;;;;;;8.47;5.50;;;1.10;1.00;;;;;;8444958;27;20247;-75
2022/12/08 15:19:29;;;;;;;6.80;5.37;;;0.90;99.90;;;;;;8460402;27;20220;-80
2022/12/08 15:23:33;;;;;;;5.80;4.57;;;0.80;99.90;;;;;;8430841;27;20321;-77
2022/12/08 15:27:35;;;;;;;5.23;4.57;;;0.50;99.90;;;;;;8436990;27;20183;-79
2022/12/08 15:31:36;;;;;;;7.83;5.00;;;0.40;1.00;;;;;;8435364;27;20215;-79
2022/12/08 15:35:37;;;;;;;6.53;5.23;;;0.20;1.00;;;;;;8440191;27;20199;-78
2022/12/08 15:39:38;;;;;;;8.67;5.10;;;0.00;99.90;;;;;;8437465;27;20176;-75
2022/12/08 15:43:38;;;;;;;6.83;4.77;;;-0.10;99.90;;;;;;8441516;27;20179;-75
2022/12/08 15:47:41;;;;;;;7.63;4.70;;;-0.30;1.00;;;;;;8436310;27;20279;-76
2022/12/08 15:51:44;;;;;;;6.70;4.83;;;-0.50;1.00;;;;;;8459207;27;20203;-78
2022/12/08 15:55:46;;;;;;;8.70;4.90;;;-0.60;99.90;;;;;;8443582;27;20188;-79
2022/12/08 15:59:46;;;;;;;7.23;5.30;;;-0.80;99.90;;;;;;8418186;27;20248;-76
2022/12/08 16:03:48;;;;;;;8.07;5.83;;;-0.90;2.60;;;;;;8440044;27;20179;-79
2022/12/08 16:07:50;;;;;;;8.17;6.20;;;-1.00;99.90;;;;;;8449947;27;20205;-76
2022/12/08 16:16:19;;;;;;;11.83;7.60;;;-1.20;99.90;;;;;;8455563;27;20194;-78
2022/12/08 16:20:21;;;;;;;14.67;8.43;;;-1.30;99.90;;;;;;8442000;27;20271;-79
2022/12/08 16:24:22;;;;;;;14.90;9.10;;;-1.30;99.90;;;;;;8438680;27;20160;-79
2022/12/08 16:28:23;;;;;;;12.97;8.73;;;-1.30;1.00;;;;;;8436961;27;20221;-76
2022/12/08 16:32:25;;;;;;;16.13;8.20;;;-1.30;99.90;;;;;;8442697;27;20238;-78
2022/12/08 16:36:25;;;;;;;12.17;8.43;;;-1.40;99.90;;;;;;8438188;27;20212;-79
2022/12/08 16:40:26;;;;;;;12.70;8.17;;;-1.40;1.00;;;;;;8452440;27;20237;-75
2022/12/08 16:44:27;;;;;;;16.10;9.80;;;-1.40;1.00;;;;;;8440766;27;20259;-80
2022/12/08 16:48:28;;;;;;;13.80;9.00;;;-1.50;1.00;;;;;;8433150;27;20243;-76
2022/12/08 16:52:29;;;;;;;17.07;9.47;;;-1.50;1.00;;;;;;8456779;27;20210;-79
2022/12/08 16:56:30;;;;;;;14.77;9.23;;;-1.60;1.00;;;;;;8438905;27;20232;-75
2022/12/08 17:00:35;;;;;;;18.20;8.97;;;-1.70;18.80;;;;;;8437181;27;20193;-75
2022/12/08 17:04:36;;;;;;;14.90;8.73;;;-1.70;99.90;;;;;;8452942;27;20187;-79
2022/12/08 17:08:38;;;;;;;14.70;9.90;;;-1.70;99.90;;;;;;8436804;27;20181;-74
2022/12/08 17:12:39;;;;;;;17.47;9.57;;;-1.70;1.00;;;;;;8435345;27;20322;-75
2022/12/08 17:16:41;;;;;;;15.80;10.17;;;-1.70;19.80;;;;;;8439188;27;20470;-75
2022/12/08 17:20:42;;;;;;;17.97;9.60;;;-1.70;99.90;;;;;;8455206;27;20538;-78
2022/12/08 17:24:43;;;;;;;17.67;10.53;;;-1.70;99.90;;;;;;8447876;27;20444;-75
2022/12/08 17:28:44;;;;;;;16.23;9.77;;;-1.70;99.90;;;;;;8436905;27;20190;-81
2022/12/08 17:32:45;;;;;;;14.77;9.90;;;-1.70;99.90;;;;;;8455735;27;20230;-80
2022/12/08 17:36:46;;;;;;;14.50;9.47;;;-1.70;99.90;;;;;;8454592;28;20190;-80
2022/12/08 17:40:47;;;;;;;13.07;9.33;;;-1.70;99.90;;;;;;8436570;28;20200;-77
2022/12/08 17:44:47;;;;;;;19.20;9.90;;;-1.60;99.90;;;;;;8433754;28;20389;-75
2022/12/08 17:48:48;;;;;;;14.03;8.80;;;-1.50;99.90;;;;;;8437279;28;20237;-79
2022/12/08 17:52:50;;;;;;;15.90;9.87;;;-1.40;99.90;;;;;;8436543;28;20213;-75
2022/12/08 17:56:51;;;;;;;15.03;10.67;;;-1.30;99.90;;;;;;8435475;28;20196;-78
2022/12/08 18:00:52;;;;;;;15.23;9.40;;;-1.20;99.90;;;;;;8430827;28;20260;-81
2022/12/08 18:04:53;;;;;;;16.30;10.53;;;-1.10;99.90;;;;;;8438228;28;20278;-75
2022/12/08 18:08:55;;;;;;;17.43;10.33;;;-0.90;99.90;;;;;;8436809;28;20183;-74
2022/12/08 18:12:57;;;;;;;16.80;9.60;;;-0.80;99.90;;;;;;8436360;28;20328;-75
2022/12/08 18:16:58;;;;;;;15.70;10.77;;;-0.80;99.90;;;;;;8433252;28;20272;-75
2022/12/08 18:20:59;;;;;;;17.03;10.93;;;-0.70;99.90;;;;;;8442040;27;20210;-77
2022/12/08 18:24:59;;;;;;;18.13;11.00;;;-0.60;99.90;;;;;;8444986;27;20192;-78
2022/12/08 18:29:01;;;;;;;17.53;11.10;;;-0.40;99.90;;;;;;8443742;27;20186;-75
2022/12/08 18:33:05;;;;;;;16.27;10.57;;;-0.20;99.90;;;;;;8463831;27;20211;-76
2022/12/08 18:37:07;;;;;;;15.93;11.27;;;0.10;99.90;;;;;;8444476;27;20179;-79
2022/12/08 18:41:15;;;;;;;17.23;10.50;;;0.30;99.90;;;;;;8442550;27;20194;-78
2022/12/08 18:45:20;;;;;;;13.07;8.70;;;0.40;99.90;;;;;;8448089;27;20602;-78
2022/12/08 18:49:21;;;;;;;10.60;8.00;;;0.50;99.90;;;;;;8458524;27;20190;-75
2022/12/08 18:53:22;;;;;;;12.80;8.87;;;0.60;99.90;;;;;;8441082;27;20208;-75
2022/12/08 18:57:23;;;;;;;11.00;8.03;;;0.60;99.90;;;;;;8439792;27;20200;-77
2022/12/08 19:01:24;;;;;;;10.63;7.80;;;0.70;99.90;;;;;;8462876;27;20180;-76
2022/12/08 19:05:25;;;;;;;10.13;7.47;;;0.80;99.90;;;;;;8448813;27;20180;-80
2022/12/08 19:09:27;;;;;;;12.03;7.20;;;0.90;99.90;;;;;;8438174;27;20275;-75
2022/12/08 19:13:29;;;;;;;9.80;6.80;;;1.10;99.90;;;;;;8438208;27;20199;-75
2022/12/08 19:17:30;;;;;;;9.27;7.00;;;1.30;99.90;;;;;;8439943;27;20176;-79
2022/12/08 19:21:31;;;;;;;8.83;6.33;;;1.40;99.90;;;;;;8458831;27;20172;-81
2022/12/08 19:25:32;;;;;;;8.77;6.77;;;1.60;99.90;;;;;;8441419;27;20180;-75
2022/12/08 19:29:34;;;;;;;9.47;6.77;;;1.60;99.90;;;;;;8446987;27;20183;-74
2022/12/08 19:33:36;;;;;;;9.87;6.90;;;1.80;99.90;;;;;;8443674;27;20243;-75
2022/12/08 19:37:37;;;;;;;8.17;6.27;;;1.80;99.90;;;;;;8439952;27;20203;-76
2022/12/08 19:45:57;;;;;;;10.53;6.53;;;2.00;1.00;;;;;;8453889;27;20206;-82
2022/12/08 19:54:17;;;;;;;7.70;5.90;;;2.10;1.00;;;;;;8446159;27;20215;-78
2022/12/08 19:58:18;;;;;;;8.27;6.17;;;2.20;99.90;;;;;;8455143;27;20203;-79
2022/12/08 20:02:19;;;;;;;8.23;6.10;;;2.30;99.90;;;;;;8432615;27;20186;-80
2022/12/08 20:06:22;;;;;;;9.80;6.73;;;2.40;99.90;;;;;;8436295;27;20188;-75
2022/12/08 20:10:35;;;;;;;8.57;6.23;;;2.40;1.00;;;;;;8451791;27;20434;-78
2022/12/08 20:14:36;;;;;;;8.60;6.70;;;2.50;1.00;;;;;;8455773;27;20226;-74
2022/12/08 20:18:38;;;;;;;10.50;7.30;;;2.50;99.90;;;;;;8439771;27;20188;-78
2022/12/08 20:22:40;;;;;;;9.27;6.57;;;2.50;99.90;;;;;;8440643;27;20249;-80
2022/12/08 20:26:41;;;;;;;9.40;6.23;;;2.30;99.90;;;;;;8454329;27;20232;-76
2022/12/08 20:30:45;;;;;;;9.33;6.60;;;2.20;99.90;;;;;;8454030;27;20517;-80
2022/12/08 20:34:46;;;;;;;9.23;5.90;;;2.20;1.00;;;;;;8444466;27;20195;-80
2022/12/08 20:38:49;;;;;;;9.87;6.13;;;2.20;1.00;;;;;;8459229;27;20458;-79
2022/12/08 20:42:51;;;;;;;7.60;5.37;;;2.20;1.00;;;;;;8440587;27;20176;-75
2022/12/08 20:46:51;;;;;;;6.00;5.10;;;2.30;1.00;;;;;;8435198;27;20183;-79
2022/12/08 20:50:53;;;;;;;7.03;5.23;;;2.30;1.00;;;;;;8455488;27;20215;-78
2022/12/08 20:54:54;;;;;;;6.53;5.20;;;2.30;1.00;;;;;;8438892;27;20182;-75
2022/12/08 20:58:55;;;;;;;8.27;6.37;;;2.20;1.00;;;;;;8419001;27;20227;-75
2022/12/08 21:02:56;;;;;;;10.37;7.00;;;2.20;1.00;;;;;;8429389;27;20172;-76
2022/12/08 21:06:58;;;;;;;9.97;6.40;;;2.30;1.00;;;;;;8438207;27;20218;-78
2022/12/08 21:10:59;;;;;;;9.17;5.93;;;2.30;1.00;;;;;;8437266;27;20198;-77
2022/12/08 21:15:00;;;;;;;9.63;6.60;;;2.30;1.00;;;;;;8438737;27;20171;-78
2022/12/08 21:19:03;;;;;;;9.87;6.93;;;2.30;1.00;;;;;;8432551;27;20314;-79
2022/12/08 21:23:03;;;;;;;9.00;6.57;;;2.30;1.00;;;;;;8434013;27;20185;-76
2022/12/08 21:27:05;;;;;;;10.93;7.20;;;2.40;1.00;;;;;;8461118;27;20217;-79
2022/12/08 21:31:11;;;;;;;9.50;6.87;;;2.40;1.00;;;;;;8433856;27;20207;-77
2022/12/08 21:35:12;;;;;;;10.03;6.70;;;2.50;1.00;;;;;;8426247;28;20202;-79
2022/12/08 21:39:12;;;;;;;10.77;7.30;;;2.50;1.00;;;;;;8435406;28;20191;-76
2022/12/08 21:43:13;;;;;;;10.43;6.40;;;2.50;99.90;;;;;;8438327;28;20191;-78
2022/12/08 21:47:14;;;;;;;9.23;7.00;;;2.60;99.90;;;;;;8433088;28;20191;-77